createdAt,value
2022-12-23T00:01:07.813Z,82.23
2022-12-23T00:06:11.072Z,83.08
2022-12-23T00:11:16.913Z,83.62
2022-12-23T00:16:18.952Z,82.45
2022-12-23T00:21:22.075Z,83.19
2022-12-23T00:26:26.803Z,83.87
2022-12-23T00:31:28.829Z,83.92
2022-12-23T00:36:30.991Z,83.75
2022-12-23T00:41:53.269Z,84.74
2022-12-23T00:46:55.317Z,83.35
2022-12-23T00:51:57.751Z,83.84
2022-12-23T00:57:01.562Z,83.15
2022-12-23T01:02:22.794Z,83.27
2022-12-23T01:07:25.264Z,83.97
2022-12-23T01:12:28.585Z,84.17
2022-12-23T01:17:30.585Z,83.28
2022-12-23T01:22:32.540Z,82.11
2022-12-23T01:27:35.813Z,81.03
2022-12-23T01:32:37.784Z,81.89
2022-12-23T01:37:40.053Z,81.99
2022-12-23T01:42:43.432Z,80.98
2022-12-23T01:47:50.371Z,81.69
2022-12-23T01:53:07.836Z,81.72
2022-12-23T01:58:14.758Z,81.21
2022-12-23T02:03:35.411Z,81.13
2022-12-23T02:08:58.240Z,81.27
2022-12-23T02:14:36.220Z,81.48
2022-12-23T02:20:17.509Z,81.05
2022-12-23T02:25:46.116Z,80.15
2022-12-23T02:30:59.430Z,80.22
2022-12-23T02:36:15.117Z,80.58
2022-12-23T02:41:23.279Z,80.44
2022-12-23T02:46:32.704Z,79.03
2022-12-23T02:51:39.555Z,78.49
2022-12-23T02:56:46.825Z,79.51
2022-12-23T03:01:52.251Z,79.52
2022-12-23T03:06:56.922Z,79.71
2022-12-23T03:12:05.407Z,79.32
2022-12-23T03:17:20.794Z,79.56
2022-12-23T03:22:26.349Z,79.36
2022-12-23T03:27:34.029Z,79.74
2022-12-23T03:32:43.762Z,81.33
2022-12-23T03:37:49.892Z,81.61
2022-12-23T03:42:58.485Z,82.15
2022-12-23T03:48:06.015Z,82.04
2022-12-23T03:53:13.580Z,81.08
2022-12-23T03:58:24.635Z,81.58
2022-12-23T04:03:34.181Z,80.94
2022-12-23T04:08:38.433Z,81.05
2022-12-23T04:13:40.641Z,80.69
2022-12-23T04:18:43.973Z,81.67
2022-12-23T04:23:45.934Z,81.11
2022-12-23T04:28:47.868Z,82.18
2022-12-23T04:33:51.147Z,81.90
2022-12-23T04:38:53.092Z,81.48
2022-12-23T04:43:55.066Z,81.44
2022-12-23T04:48:58.367Z,80.76
2022-12-23T04:54:00.374Z,80.58
2022-12-23T04:59:04.192Z,80.40
2022-12-23T05:04:07.543Z,80.87
2022-12-23T05:09:09.940Z,81.19
2022-12-23T05:14:12.519Z,81.01
2022-12-23T05:19:15.891Z,80.40
2022-12-23T05:24:17.837Z,80.03
2022-12-23T05:29:19.810Z,80.54
2022-12-23T05:34:23.269Z,79.54
2022-12-23T05:39:25.233Z,79.70
2022-12-23T05:44:27.155Z,79.57
2022-12-23T05:49:30.438Z,80.20
2022-12-23T05:54:32.579Z,79.58
2022-12-23T05:59:34.549Z,79.01
2022-12-23T06:04:37.867Z,78.29
2022-12-23T06:09:39.814Z,78.34
2022-12-23T06:14:41.775Z,77.40
2022-12-23T06:19:45.113Z,78.66
2022-12-23T06:24:47.494Z,77.72
2022-12-23T06:29:49.453Z,77.49
2022-12-23T06:34:53.355Z,77.50
2022-12-23T06:39:55.382Z,77.26
2022-12-23T06:44:57.340Z,76.42
2022-12-23T06:50:01.723Z,76.48
2022-12-23T06:55:04.298Z,76.79
2022-12-23T07:00:07.308Z,77.03
2022-12-23T07:05:10.802Z,77.29
2022-12-23T07:10:13.006Z,77.00
2022-12-23T07:15:15.044Z,77.08
2022-12-23T07:20:18.434Z,78.46
2022-12-23T07:25:20.456Z,78.24
2022-12-23T07:30:22.615Z,77.91
2022-12-23T07:35:25.950Z,77.77
2022-12-23T07:40:28.070Z,78.88
2022-12-23T07:45:30.412Z,79.19
2022-12-23T07:50:33.921Z,79.15
2022-12-23T07:55:36.202Z,79.45
2022-12-23T08:00:38.366Z,80.35
2022-12-23T08:05:41.762Z,81.02
2022-12-23T08:10:48.287Z,80.88
2022-12-23T08:15:55.049Z,81.02
2022-12-23T08:21:00.161Z,80.77
2022-12-23T08:26:04.595Z,79.95
2022-12-23T08:31:09.234Z,79.57
2022-12-23T08:36:20.789Z,79.43
2022-12-23T08:41:27.323Z,78.70
2022-12-23T08:46:29.450Z,77.87
2022-12-23T08:51:33.028Z,78.40
2022-12-23T08:56:35.770Z,79.89
2022-12-23T09:01:37.849Z,79.04
2022-12-23T09:06:42.876Z,77.30
2022-12-23T09:11:44.988Z,77.76
2022-12-23T09:16:50.004Z,76.66
2022-12-23T09:21:53.297Z,76.51
2022-12-23T09:26:55.235Z,76.22
2022-12-23T09:31:57.302Z,76.81
2022-12-23T09:37:00.699Z,76.11
2022-12-23T09:42:07.976Z,77.06
2022-12-23T09:47:15.750Z,76.13
2022-12-23T09:52:25.492Z,74.91
2022-12-23T09:57:31.734Z,74.59
2022-12-23T10:02:43.121Z,74.50
2022-12-23T10:07:52.067Z,75.84
2022-12-23T10:12:56.391Z,75.01
2022-12-23T10:18:02.403Z,74.54
2022-12-23T10:23:11.256Z,73.70
2022-12-23T10:28:13.287Z,73.68
2022-12-23T10:33:20.529Z,74.97
2022-12-23T10:38:35.847Z,74.42
2022-12-23T10:43:54.033Z,75.27
2022-12-23T10:49:05.433Z,74.64
2022-12-23T10:54:11.441Z,74.49
2022-12-23T10:59:15.457Z,74.17
2022-12-23T11:04:23.804Z,73.23
2022-12-23T11:09:37.138Z,75.60
2022-12-23T11:14:41.689Z,74.86
2022-12-23T11:19:43.676Z,75.83
2022-12-23T11:24:46.980Z,75.47
2022-12-23T11:29:54.273Z,74.50
2022-12-23T11:34:56.742Z,75.40
2022-12-23T11:40:00.329Z,74.38
2022-12-23T11:45:07.151Z,74.53
2022-12-23T11:50:27.853Z,75.64
2022-12-23T11:55:32.914Z,75.00
2022-12-23T12:00:41.256Z,76.00
2022-12-23T12:05:49.669Z,76.63
2022-12-23T12:11:00.187Z,76.54
2022-12-23T12:16:16.319Z,76.96
2022-12-23T12:21:23.690Z,77.62
2022-12-23T12:26:30.637Z,76.79
2022-12-23T12:31:37.849Z,78.79
2022-12-23T12:36:47.637Z,77.76
2022-12-23T12:41:54.230Z,77.24
2022-12-23T12:47:15.974Z,77.24
2022-12-23T12:52:27.365Z,77.68
2022-12-23T12:57:34.322Z,78.01
2022-12-23T13:02:52.255Z,77.87
2022-12-23T13:08:11.817Z,77.59
2022-12-23T13:13:32.293Z,77.92
2022-12-23T13:18:43.290Z,78.33
2022-12-23T13:23:52.987Z,79.45
2022-12-23T13:29:08.224Z,80.14
2022-12-23T13:34:24.194Z,79.47
2022-12-23T13:39:42.067Z,80.09
2022-12-23T13:44:45.726Z,79.43
2022-12-23T13:50:01.639Z,80.37
2022-12-23T13:55:18.316Z,80.38
2022-12-23T14:00:29.030Z,80.44
2022-12-23T14:05:35.585Z,79.11
2022-12-23T14:10:39.065Z,78.74
2022-12-23T14:16:08.233Z,79.01
2022-12-23T14:21:23.361Z,78.89
2022-12-23T14:26:39.229Z,78.65
2022-12-23T14:31:44.497Z,79.12
2022-12-23T14:37:14.982Z,79.68
2022-12-23T14:42:34.481Z,79.09
2022-12-23T14:47:40.373Z,78.78
2022-12-23T14:52:49.880Z,78.42
2022-12-23T14:58:05.789Z,78.82
2022-12-23T15:03:12.133Z,78.18
2022-12-23T15:08:27.433Z,79.41
2022-12-23T15:13:30.982Z,80.17
2022-12-23T15:18:32.998Z,79.88
2022-12-23T15:23:36.510Z,79.94
2022-12-23T15:28:39.206Z,80.40
2022-12-23T15:39:09.653Z,79.28
2022-12-23T15:44:15.285Z,79.26
2022-12-23T15:49:19.176Z,79.71
2022-12-23T15:54:26.967Z,79.29
2022-12-23T15:59:32.908Z,79.26
2022-12-23T16:04:35.068Z,79.58
2022-12-23T16:09:38.454Z,80.10
2022-12-23T16:14:41.762Z,79.58
2022-12-23T16:19:46.701Z,78.49
2022-12-23T16:24:53.649Z,77.96
2022-12-23T16:29:57.481Z,78.33
2022-12-23T16:35:10.693Z,78.26
2022-12-23T16:40:15.752Z,78.18
2022-12-23T16:45:17.724Z,78.57
2022-12-23T16:50:19.978Z,77.56
2022-12-23T16:55:23.315Z,77.77
2022-12-23T17:00:25.326Z,77.67
2022-12-23T17:05:27.323Z,78.82
2022-12-23T17:10:30.638Z,77.93
2022-12-23T17:15:32.631Z,77.79
2022-12-23T17:20:34.709Z,77.46
2022-12-23T17:25:38.014Z,76.93
2022-12-23T17:30:40.975Z,76.54
2022-12-23T17:35:43.882Z,77.22
2022-12-23T17:40:48.139Z,77.07
2022-12-23T17:45:50.459Z,76.28
2022-12-23T17:50:52.518Z,77.10
2022-12-23T17:55:55.903Z,76.82
2022-12-23T18:00:57.911Z,77.14
2022-12-23T18:06:02.218Z,76.09
2022-12-23T18:11:06.889Z,77.47
2022-12-23T18:16:11.012Z,77.20
2022-12-23T18:21:17.319Z,77.01
2022-12-23T18:26:20.863Z,78.27
2022-12-23T18:31:24.339Z,78.08
2022-12-23T18:36:28.547Z,79.37
2022-12-23T18:41:31.940Z,79.19
2022-12-23T18:46:33.997Z,79.02
2022-12-23T18:51:36.081Z,78.76
2022-12-23T18:56:39.449Z,79.40
2022-12-23T19:01:41.481Z,79.69
2022-12-23T19:06:43.631Z,80.20
2022-12-23T19:11:48.603Z,80.14
2022-12-23T19:16:52.072Z,81.13
2022-12-23T19:21:54.787Z,79.77
2022-12-23T19:26:58.143Z,80.48
2022-12-23T19:32:00.413Z,79.75
2022-12-23T19:37:02.389Z,79.47
2022-12-23T19:42:05.743Z,79.60
2022-12-23T19:47:07.773Z,79.98
2022-12-23T19:52:10.068Z,79.86
2022-12-23T19:57:13.470Z,78.46
2022-12-23T20:02:16.637Z,78.64
2022-12-23T20:07:18.829Z,77.71
2022-12-23T20:12:22.189Z,78.73
2022-12-23T20:17:24.190Z,78.26
2022-12-23T20:22:26.194Z,78.64
2022-12-23T20:27:29.581Z,78.17
2022-12-23T20:32:31.561Z,77.19
2022-12-23T20:37:33.537Z,77.20
2022-12-23T20:42:37.116Z,77.97
2022-12-23T20:47:39.524Z,78.11
2022-12-23T20:52:41.618Z,77.78
2022-12-23T20:57:45.750Z,78.13
2022-12-23T21:02:47.796Z,77.91
2022-12-23T21:07:49.895Z,78.58
2022-12-23T21:12:53.221Z,78.85
2022-12-23T21:17:55.213Z,79.09
2022-12-23T21:22:57.240Z,79.34
2022-12-23T21:28:00.832Z,79.10
2022-12-23T21:33:03.558Z,79.52
2022-12-23T21:38:05.525Z,79.44
2022-12-23T21:43:09.147Z,79.91
2022-12-23T21:48:11.151Z,80.35
2022-12-23T21:53:13.394Z,80.55
2022-12-23T21:58:16.729Z,80.55
2022-12-23T22:03:18.763Z,80.25
2022-12-23T22:08:20.752Z,80.60
2022-12-23T22:13:25.158Z,80.94
2022-12-23T22:18:27.148Z,80.73
2022-12-23T22:23:29.128Z,80.99
2022-12-23T22:28:34.709Z,80.77
2022-12-23T22:33:36.721Z,81.37
2022-12-23T22:38:38.871Z,81.79
2022-12-23T22:43:42.223Z,81.71
2022-12-23T22:48:44.424Z,81.63
2022-12-23T22:53:46.894Z,81.35
2022-12-23T22:58:50.994Z,81.78
2022-12-23T23:03:57.331Z,82.02
2022-12-23T23:09:00.056Z,83.13
2022-12-23T23:14:04.210Z,83.32
2022-12-23T23:19:08.932Z,84.21
2022-12-23T23:24:11.939Z,84.80
2022-12-23T23:29:15.276Z,84.17
2022-12-23T23:34:17.268Z,84.28
2022-12-23T23:39:19.319Z,83.57
2022-12-23T23:44:22.662Z,83.76
2022-12-23T23:49:24.812Z,84.66
2022-12-23T23:54:26.944Z,84.99
2022-12-23T23:59:30.592Z,85.90
